sensor_id;sensor_type;location;lat;lon;timestamp;P1;durP1;ratioP1;P2;durP2;ratioP2
819;SDS011;392;48.838;2.322;2023-11-19T00:01:59;2.13;;;1.93;;
819;SDS011;392;48.838;2.322;2023-11-19T00:04:26;1.87;;;1.77;;
819;SDS011;392;48.838;2.322;2023-11-19T00:06:53;2.07;;;1.90;;
819;SDS011;392;48.838;2.322;2023-11-19T00:09:20;2.97;;;2.13;;
819;SDS011;392;48.838;2.322;2023-11-19T00:11:47;2.43;;;2.33;;
819;SDS011;392;48.838;2.322;2023-11-19T00:14:16;1.73;;;1.63;;
819;SDS011;392;48.838;2.322;2023-11-19T00:16:43;1.97;;;1.70;;
819;SDS011;392;48.838;2.322;2023-11-19T00:19:10;2.20;;;2.00;;
819;SDS011;392;48.838;2.322;2023-11-19T00:21:37;3.10;;;2.90;;
819;SDS011;392;48.838;2.322;2023-11-19T00:24:06;1.47;;;1.37;;
819;SDS011;392;48.838;2.322;2023-11-19T00:26:34;3.33;;;3.13;;
819;SDS011;392;48.838;2.322;2023-11-19T00:29:03;1.57;;;1.47;;
819;SDS011;392;48.838;2.322;2023-11-19T00:31:33;2.93;;;2.73;;
819;SDS011;392;48.838;2.322;2023-11-19T00:34:00;1.87;;;1.77;;
819;SDS011;392;48.838;2.322;2023-11-19T00:36:28;2.90;;;2.70;;
819;SDS011;392;48.838;2.322;2023-11-19T00:38:55;2.10;;;1.97;;
819;SDS011;392;48.838;2.322;2023-11-19T00:41:22;2.03;;;1.93;;
819;SDS011;392;48.838;2.322;2023-11-19T00:43:50;1.93;;;1.70;;
819;SDS011;392;48.838;2.322;2023-11-19T00:46:17;3.87;;;3.47;;
819;SDS011;392;48.838;2.322;2023-11-19T00:48:46;4.50;;;2.63;;
819;SDS011;392;48.838;2.322;2023-11-19T00:51:14;3.23;;;2.97;;
819;SDS011;392;48.838;2.322;2023-11-19T00:53:41;1.50;;;1.40;;
819;SDS011;392;48.838;2.322;2023-11-19T00:56:08;2.20;;;2.10;;
819;SDS011;392;48.838;2.322;2023-11-19T00:58:38;2.80;;;2.60;;
819;SDS011;392;48.838;2.322;2023-11-19T01:01:05;1.60;;;1.50;;
819;SDS011;392;48.838;2.322;2023-11-19T01:03:33;1.73;;;1.63;;
819;SDS011;392;48.838;2.322;2023-11-19T01:06:01;1.80;;;1.70;;
819;SDS011;392;48.838;2.322;2023-11-19T01:08:29;1.80;;;1.70;;
819;SDS011;392;48.838;2.322;2023-11-19T01:10:57;2.40;;;1.60;;
819;SDS011;392;48.838;2.322;2023-11-19T01:13:25;1.20;;;1.20;;
819;SDS011;392;48.838;2.322;2023-11-19T01:15:52;1.40;;;1.40;;
819;SDS011;392;48.838;2.322;2023-11-19T01:18:21;1.30;;;1.20;;
819;SDS011;392;48.838;2.322;2023-11-19T01:20:48;1.60;;;1.50;;
819;SDS011;392;48.838;2.322;2023-11-19T01:23:17;4.13;;;1.37;;
819;SDS011;392;48.838;2.322;2023-11-19T01:25:44;1.50;;;1.40;;
819;SDS011;392;48.838;2.322;2023-11-19T01:28:11;1.40;;;1.30;;
819;SDS011;392;48.838;2.322;2023-11-19T01:30:38;1.47;;;1.37;;
819;SDS011;392;48.838;2.322;2023-11-19T01:33:06;3.03;;;1.77;;
819;SDS011;392;48.838;2.322;2023-11-19T01:35:33;2.67;;;1.80;;
819;SDS011;392;48.838;2.322;2023-11-19T01:38:01;3.67;;;3.40;;
819;SDS011;392;48.838;2.322;2023-11-19T01:40:29;1.50;;;1.37;;
819;SDS011;392;48.838;2.322;2023-11-19T01:42:56;1.60;;;1.50;;
819;SDS011;392;48.838;2.322;2023-11-19T01:45:26;1.80;;;1.40;;
819;SDS011;392;48.838;2.322;2023-11-19T01:47:56;1.60;;;1.50;;
819;SDS011;392;48.838;2.322;2023-11-19T01:50:23;1.43;;;1.33;;
819;SDS011;392;48.838;2.322;2023-11-19T01:52:52;1.33;;;1.23;;
819;SDS011;392;48.838;2.322;2023-11-19T01:55:20;2.67;;;1.50;;
819;SDS011;392;48.838;2.322;2023-11-19T01:57:49;1.70;;;1.60;;
819;SDS011;392;48.838;2.322;2023-11-19T02:00:17;1.77;;;1.67;;
819;SDS011;392;48.838;2.322;2023-11-19T02:02:45;1.83;;;1.67;;
819;SDS011;392;48.838;2.322;2023-11-19T02:05:15;2.03;;;1.10;;
819;SDS011;392;48.838;2.322;2023-11-19T02:07:42;1.63;;;1.53;;
819;SDS011;392;48.838;2.322;2023-11-19T02:10:11;2.07;;;1.70;;
819;SDS011;392;48.838;2.322;2023-11-19T02:12:40;2.00;;;1.57;;
819;SDS011;392;48.838;2.322;2023-11-19T02:15:10;2.00;;;1.50;;
819;SDS011;392;48.838;2.322;2023-11-19T02:17:38;1.57;;;1.47;;
819;SDS011;392;48.838;2.322;2023-11-19T02:20:05;2.50;;;1.43;;
819;SDS011;392;48.838;2.322;2023-11-19T02:22:34;2.07;;;1.87;;
819;SDS011;392;48.838;2.322;2023-11-19T02:25:03;1.17;;;1.07;;
819;SDS011;392;48.838;2.322;2023-11-19T02:27:43;1.60;;;1.50;;
819;SDS011;392;48.838;2.322;2023-11-19T02:30:21;1.83;;;1.60;;
819;SDS011;392;48.838;2.322;2023-11-19T02:32:52;3.07;;;1.43;;
819;SDS011;392;48.838;2.322;2023-11-19T02:35:19;2.17;;;1.50;;
819;SDS011;392;48.838;2.322;2023-11-19T02:37:48;1.60;;;1.50;;
819;SDS011;392;48.838;2.322;2023-11-19T02:40:15;2.80;;;1.60;;
819;SDS011;392;48.838;2.322;2023-11-19T02:42:44;2.00;;;1.83;;
819;SDS011;392;48.838;2.322;2023-11-19T02:45:11;1.53;;;1.30;;
819;SDS011;392;48.838;2.322;2023-11-19T02:47:39;1.47;;;1.33;;
819;SDS011;392;48.838;2.322;2023-11-19T02:50:08;1.50;;;1.40;;
819;SDS011;392;48.838;2.322;2023-11-19T02:52:39;1.53;;;1.40;;
819;SDS011;392;48.838;2.322;2023-11-19T02:55:07;1.63;;;1.40;;
819;SDS011;392;48.838;2.322;2023-11-19T02:57:38;1.57;;;1.47;;
819;SDS011;392;48.838;2.322;2023-11-19T03:00:13;2.17;;;1.77;;
819;SDS011;392;48.838;2.322;2023-11-19T03:02:41;2.27;;;1.47;;
819;SDS011;392;48.838;2.322;2023-11-19T03:05:11;2.00;;;1.43;;
819;SDS011;392;48.838;2.322;2023-11-19T03:07:40;2.10;;;1.47;;
819;SDS011;392;48.838;2.322;2023-11-19T03:10:09;2.93;;;1.50;;
819;SDS011;392;48.838;2.322;2023-11-19T03:12:39;1.40;;;1.27;;
819;SDS011;392;48.838;2.322;2023-11-19T03:15:06;1.80;;;1.60;;
819;SDS011;392;48.838;2.322;2023-11-19T03:17:37;3.00;;;1.67;;
819;SDS011;392;48.838;2.322;2023-11-19T03:20:06;2.23;;;1.57;;
819;SDS011;392;48.838;2.322;2023-11-19T03:22:37;1.80;;;1.37;;
819;SDS011;392;48.838;2.322;2023-11-19T03:25:04;2.13;;;1.67;;
819;SDS011;392;48.838;2.322;2023-11-19T03:27:33;1.47;;;1.37;;
819;SDS011;392;48.838;2.322;2023-11-19T03:30:01;1.83;;;1.30;;
819;SDS011;392;48.838;2.322;2023-11-19T03:32:30;2.60;;;1.60;;
819;SDS011;392;48.838;2.322;2023-11-19T03:34:59;3.53;;;1.50;;
819;SDS011;392;48.838;2.322;2023-11-19T03:37:27;1.90;;;1.60;;
819;SDS011;392;48.838;2.322;2023-11-19T03:39:54;1.77;;;1.50;;
819;SDS011;392;48.838;2.322;2023-11-19T03:42:25;2.40;;;1.80;;
819;SDS011;392;48.838;2.322;2023-11-19T03:44:53;2.30;;;1.67;;
819;SDS011;392;48.838;2.322;2023-11-19T03:47:20;1.50;;;1.40;;
819;SDS011;392;48.838;2.322;2023-11-19T03:49:48;2.90;;;1.50;;
819;SDS011;392;48.838;2.322;2023-11-19T03:52:17;1.77;;;1.67;;
819;SDS011;392;48.838;2.322;2023-11-19T03:54:45;2.23;;;1.70;;
819;SDS011;392;48.838;2.322;2023-11-19T03:57:12;1.87;;;1.30;;
819;SDS011;392;48.838;2.322;2023-11-19T03:59:41;1.47;;;1.30;;
819;SDS011;392;48.838;2.322;2023-11-19T04:02:08;3.10;;;1.37;;
819;SDS011;392;48.838;2.322;2023-11-19T04:04:35;2.27;;;1.30;;
819;SDS011;392;48.838;2.322;2023-11-19T04:07:03;1.93;;;1.40;;
819;SDS011;392;48.838;2.322;2023-11-19T04:09:32;1.60;;;1.50;;
819;SDS011;392;48.838;2.322;2023-11-19T04:11:59;1.77;;;1.30;;
819;SDS011;392;48.838;2.322;2023-11-19T04:14:27;3.50;;;1.60;;
819;SDS011;392;48.838;2.322;2023-11-19T04:16:54;1.40;;;1.30;;
819;SDS011;392;48.838;2.322;2023-11-19T04:19:21;2.80;;;1.17;;
819;SDS011;392;48.838;2.322;2023-11-19T04:21:50;1.87;;;1.00;;
819;SDS011;392;48.838;2.322;2023-11-19T04:24:17;1.73;;;1.33;;
819;SDS011;392;48.838;2.322;2023-11-19T04:26:46;2.20;;;1.40;;
819;SDS011;392;48.838;2.322;2023-11-19T04:29:13;2.10;;;2.00;;
819;SDS011;392;48.838;2.322;2023-11-19T04:31:43;2.40;;;1.60;;
819;SDS011;392;48.838;2.322;2023-11-19T04:34:11;1.97;;;1.43;;
819;SDS011;392;48.838;2.322;2023-11-19T04:36:38;3.43;;;1.60;;
819;SDS011;392;48.838;2.322;2023-11-19T04:39:05;3.83;;;1.60;;
819;SDS011;392;48.838;2.322;2023-11-19T04:41:46;3.03;;;1.30;;
819;SDS011;392;48.838;2.322;2023-11-19T04:44:14;1.53;;;1.43;;
819;SDS011;392;48.838;2.322;2023-11-19T04:46:41;2.50;;;1.30;;
819;SDS011;392;48.838;2.322;2023-11-19T04:49:09;2.63;;;1.50;;
819;SDS011;392;48.838;2.322;2023-11-19T04:51:40;4.53;;;1.40;;
819;SDS011;392;48.838;2.322;2023-11-19T04:54:07;1.67;;;1.50;;
819;SDS011;392;48.838;2.322;2023-11-19T04:56:35;9.43;;;2.03;;
819;SDS011;392;48.838;2.322;2023-11-19T04:59:04;2.20;;;1.47;;
819;SDS011;392;48.838;2.322;2023-11-19T05:01:32;4.00;;;1.30;;
819;SDS011;392;48.838;2.322;2023-11-19T05:03:59;1.80;;;1.40;;
819;SDS011;392;48.838;2.322;2023-11-19T05:06:27;3.67;;;1.70;;
819;SDS011;392;48.838;2.322;2023-11-19T05:08:55;1.97;;;1.30;;
819;SDS011;392;48.838;2.322;2023-11-19T05:11:22;3.43;;;1.40;;
819;SDS011;392;48.838;2.322;2023-11-19T05:13:49;2.37;;;1.50;;
819;SDS011;392;48.838;2.322;2023-11-19T05:16:18;3.90;;;1.50;;
819;SDS011;392;48.838;2.322;2023-11-19T05:18:46;1.40;;;1.30;;
819;SDS011;392;48.838;2.322;2023-11-19T05:21:13;3.93;;;1.90;;
819;SDS011;392;48.838;2.322;2023-11-19T05:23:41;1.47;;;1.37;;
819;SDS011;392;48.838;2.322;2023-11-19T05:26:08;3.90;;;1.77;;
819;SDS011;392;48.838;2.322;2023-11-19T05:28:37;5.87;;;1.93;;
819;SDS011;392;48.838;2.322;2023-11-19T05:31:05;2.63;;;1.30;;
819;SDS011;392;48.838;2.322;2023-11-19T05:33:34;1.50;;;1.13;;
819;SDS011;392;48.838;2.322;2023-11-19T05:36:01;1.80;;;1.40;;
819;SDS011;392;48.838;2.322;2023-11-19T05:38:29;2.40;;;1.30;;
819;SDS011;392;48.838;2.322;2023-11-19T05:40:56;2.40;;;2.20;;
819;SDS011;392;48.838;2.322;2023-11-19T05:43:23;2.30;;;1.40;;
819;SDS011;392;48.838;2.322;2023-11-19T05:45:51;1.83;;;1.33;;
819;SDS011;392;48.838;2.322;2023-11-19T05:48:18;3.60;;;1.40;;
819;SDS011;392;48.838;2.322;2023-11-19T05:50:46;1.90;;;1.50;;
819;SDS011;392;48.838;2.322;2023-11-19T05:53:15;2.57;;;1.30;;
819;SDS011;392;48.838;2.322;2023-11-19T05:55:42;2.00;;;1.30;;
819;SDS011;392;48.838;2.322;2023-11-19T05:58:14;2.57;;;1.43;;
819;SDS011;392;48.838;2.322;2023-11-19T06:00:42;3.13;;;1.13;;
819;SDS011;392;48.838;2.322;2023-11-19T06:03:09;1.60;;;1.20;;
819;SDS011;392;48.838;2.322;2023-11-19T06:05:37;2.00;;;1.73;;
819;SDS011;392;48.838;2.322;2023-11-19T06:08:05;2.30;;;1.30;;
819;SDS011;392;48.838;2.322;2023-11-19T06:10:32;2.67;;;1.20;;
819;SDS011;392;48.838;2.322;2023-11-19T06:12:59;1.47;;;1.37;;
819;SDS011;392;48.838;2.322;2023-11-19T06:15:30;1.90;;;1.50;;
819;SDS011;392;48.838;2.322;2023-11-19T06:17:58;3.20;;;1.80;;
819;SDS011;392;48.838;2.322;2023-11-19T06:20:27;4.90;;;1.17;;
819;SDS011;392;48.838;2.322;2023-11-19T06:22:54;3.17;;;1.60;;
819;SDS011;392;48.838;2.322;2023-11-19T06:25:23;3.07;;;1.60;;
819;SDS011;392;48.838;2.322;2023-11-19T06:27:50;3.13;;;1.70;;
819;SDS011;392;48.838;2.322;2023-11-19T06:30:18;3.13;;;1.37;;
819;SDS011;392;48.838;2.322;2023-11-19T06:32:45;4.33;;;1.33;;
819;SDS011;392;48.838;2.322;2023-11-19T06:35:13;3.60;;;1.60;;
819;SDS011;392;48.838;2.322;2023-11-19T06:37:40;2.37;;;1.40;;
819;SDS011;392;48.838;2.322;2023-11-19T06:40:08;3.80;;;2.20;;
819;SDS011;392;48.838;2.322;2023-11-19T06:42:38;1.90;;;1.70;;
819;SDS011;392;48.838;2.322;2023-11-19T06:45:06;6.70;;;1.50;;
819;SDS011;392;48.838;2.322;2023-11-19T06:47:33;3.77;;;1.90;;
819;SDS011;392;48.838;2.322;2023-11-19T06:50:00;2.07;;;1.60;;
819;SDS011;392;48.838;2.322;2023-11-19T06:52:30;3.20;;;1.50;;
819;SDS011;392;48.838;2.322;2023-11-19T06:54:58;3.03;;;1.60;;
819;SDS011;392;48.838;2.322;2023-11-19T06:57:25;3.97;;;2.20;;
819;SDS011;392;48.838;2.322;2023-11-19T06:59:55;2.53;;;1.80;;
819;SDS011;392;48.838;2.322;2023-11-19T07:02:22;2.93;;;1.60;;
819;SDS011;392;48.838;2.322;2023-11-19T07:04:49;2.30;;;2.10;;
819;SDS011;392;48.838;2.322;2023-11-19T07:07:16;3.20;;;1.53;;
819;SDS011;392;48.838;2.322;2023-11-19T07:09:44;3.70;;;1.70;;
819;SDS011;392;48.838;2.322;2023-11-19T07:12:11;4.33;;;2.23;;
819;SDS011;392;48.838;2.322;2023-11-19T07:14:38;2.80;;;1.50;;
819;SDS011;392;48.838;2.322;2023-11-19T07:17:08;2.70;;;1.60;;
819;SDS011;392;48.838;2.322;2023-11-19T07:19:35;3.67;;;1.67;;
819;SDS011;392;48.838;2.322;2023-11-19T07:22:03;2.67;;;1.50;;
819;SDS011;392;48.838;2.322;2023-11-19T07:24:31;3.93;;;1.60;;
819;SDS011;392;48.838;2.322;2023-11-19T07:26:58;2.00;;;1.30;;
819;SDS011;392;48.838;2.322;2023-11-19T07:29:25;3.33;;;1.70;;
819;SDS011;392;48.838;2.322;2023-11-19T07:31:53;2.80;;;1.90;;
819;SDS011;392;48.838;2.322;2023-11-19T07:34:22;6.47;;;1.80;;
819;SDS011;392;48.838;2.322;2023-11-19T07:36:50;6.30;;;1.70;;
819;SDS011;392;48.838;2.322;2023-11-19T07:39:17;6.10;;;2.20;;
819;SDS011;392;48.838;2.322;2023-11-19T07:41:45;3.17;;;1.80;;
819;SDS011;392;48.838;2.322;2023-11-19T07:44:14;4.53;;;1.63;;
819;SDS011;392;48.838;2.322;2023-11-19T07:46:41;3.73;;;1.80;;
819;SDS011;392;48.838;2.322;2023-11-19T07:49:10;2.07;;;1.50;;
819;SDS011;392;48.838;2.322;2023-11-19T07:51:39;2.40;;;1.83;;
819;SDS011;392;48.838;2.322;2023-11-19T07:54:07;1.90;;;1.80;;
819;SDS011;392;48.838;2.322;2023-11-19T07:56:34;4.27;;;2.30;;
819;SDS011;392;48.838;2.322;2023-11-19T07:59:01;2.53;;;1.60;;
819;SDS011;392;48.838;2.322;2023-11-19T08:01:29;7.07;;;2.23;;
819;SDS011;392;48.838;2.322;2023-11-19T08:03:56;2.67;;;1.67;;
819;SDS011;392;48.838;2.322;2023-11-19T08:06:23;4.90;;;1.60;;
819;SDS011;392;48.838;2.322;2023-11-19T08:08:52;3.73;;;2.40;;
819;SDS011;392;48.838;2.322;2023-11-19T08:11:19;5.03;;;1.90;;
819;SDS011;392;48.838;2.322;2023-11-19T08:13:46;3.20;;;1.80;;
819;SDS011;392;48.838;2.322;2023-11-19T08:16:13;7.33;;;2.23;;
819;SDS011;392;48.838;2.322;2023-11-19T08:18:41;3.13;;;1.97;;
819;SDS011;392;48.838;2.322;2023-11-19T08:21:09;5.13;;;2.50;;
819;SDS011;392;48.838;2.322;2023-11-19T08:23:37;6.13;;;2.33;;
819;SDS011;392;48.838;2.322;2023-11-19T08:26:06;1.77;;;1.63;;
819;SDS011;392;48.838;2.322;2023-11-19T08:28:33;2.73;;;1.70;;
819;SDS011;392;48.838;2.322;2023-11-19T08:31:01;4.70;;;2.30;;
819;SDS011;392;48.838;2.322;2023-11-19T08:33:29;4.53;;;2.10;;
819;SDS011;392;48.838;2.322;2023-11-19T08:35:56;3.83;;;1.90;;
819;SDS011;392;48.838;2.322;2023-11-19T08:38:23;3.47;;;1.77;;
819;SDS011;392;48.838;2.322;2023-11-19T08:40:51;5.60;;;2.00;;
819;SDS011;392;48.838;2.322;2023-11-19T08:43:19;3.90;;;1.67;;
819;SDS011;392;48.838;2.322;2023-11-19T08:45:48;5.83;;;2.20;;
819;SDS011;392;48.838;2.322;2023-11-19T08:48:15;3.50;;;1.77;;
819;SDS011;392;48.838;2.322;2023-11-19T08:50:42;3.20;;;1.87;;
819;SDS011;392;48.838;2.322;2023-11-19T08:53:09;4.97;;;2.00;;
819;SDS011;392;48.838;2.322;2023-11-19T08:55:37;6.13;;;2.40;;
819;SDS011;392;48.838;2.322;2023-11-19T08:58:04;6.33;;;1.97;;
819;SDS011;392;48.838;2.322;2023-11-19T09:00:33;5.70;;;2.17;;
819;SDS011;392;48.838;2.322;2023-11-19T09:03:00;6.70;;;2.00;;
819;SDS011;392;48.838;2.322;2023-11-19T09:05:27;5.37;;;1.83;;
819;SDS011;392;48.838;2.322;2023-11-19T09:07:54;5.43;;;1.97;;
819;SDS011;392;48.838;2.322;2023-11-19T09:10:21;4.07;;;2.17;;
819;SDS011;392;48.838;2.322;2023-11-19T09:12:48;3.63;;;2.07;;
819;SDS011;392;48.838;2.322;2023-11-19T09:15:16;4.03;;;2.10;;
819;SDS011;392;48.838;2.322;2023-11-19T09:17:44;4.30;;;1.80;;
819;SDS011;392;48.838;2.322;2023-11-19T09:20:11;5.57;;;2.60;;
819;SDS011;392;48.838;2.322;2023-11-19T09:22:40;4.83;;;2.23;;
819;SDS011;392;48.838;2.322;2023-11-19T09:25:07;5.23;;;1.87;;
819;SDS011;392;48.838;2.322;2023-11-19T09:27:35;7.80;;;3.00;;
819;SDS011;392;48.838;2.322;2023-11-19T09:30:02;3.93;;;2.00;;
819;SDS011;392;48.838;2.322;2023-11-19T09:32:30;3.37;;;1.90;;
819;SDS011;392;48.838;2.322;2023-11-19T09:34:58;4.90;;;2.00;;
819;SDS011;392;48.838;2.322;2023-11-19T09:37:26;4.53;;;1.70;;
819;SDS011;392;48.838;2.322;2023-11-19T09:39:53;5.47;;;2.10;;
819;SDS011;392;48.838;2.322;2023-11-19T09:42:20;6.67;;;2.53;;
819;SDS011;392;48.838;2.322;2023-11-19T09:44:47;7.17;;;2.30;;
819;SDS011;392;48.838;2.322;2023-11-19T09:47:16;2.50;;;2.30;;
819;SDS011;392;48.838;2.322;2023-11-19T09:49:45;7.27;;;3.13;;
819;SDS011;392;48.838;2.322;2023-11-19T09:52:14;6.37;;;2.40;;
819;SDS011;392;48.838;2.322;2023-11-19T09:54:41;5.60;;;2.20;;
819;SDS011;392;48.838;2.322;2023-11-19T09:57:09;5.63;;;2.47;;
819;SDS011;392;48.838;2.322;2023-11-19T09:59:37;7.33;;;2.17;;
819;SDS011;392;48.838;2.322;2023-11-19T10:02:06;6.40;;;2.13;;
819;SDS011;392;48.838;2.322;2023-11-19T10:04:34;4.33;;;2.87;;
819;SDS011;392;48.838;2.322;2023-11-19T10:07:03;6.30;;;2.50;;
819;SDS011;392;48.838;2.322;2023-11-19T10:09:32;8.60;;;2.90;;
819;SDS011;392;48.838;2.322;2023-11-19T10:12:00;3.60;;;2.23;;
819;SDS011;392;48.838;2.322;2023-11-19T10:14:27;7.20;;;2.50;;
819;SDS011;392;48.838;2.322;2023-11-19T10:16:58;4.87;;;2.03;;
819;SDS011;392;48.838;2.322;2023-11-19T10:19:29;6.73;;;2.53;;
819;SDS011;392;48.838;2.322;2023-11-19T10:22:01;6.33;;;2.30;;
819;SDS011;392;48.838;2.322;2023-11-19T10:24:32;6.43;;;2.93;;
819;SDS011;392;48.838;2.322;2023-11-19T10:27:01;5.77;;;2.23;;
819;SDS011;392;48.838;2.322;2023-11-19T10:29:29;8.97;;;3.03;;
819;SDS011;392;48.838;2.322;2023-11-19T10:31:56;6.60;;;2.37;;
819;SDS011;392;48.838;2.322;2023-11-19T10:34:24;8.03;;;2.20;;
819;SDS011;392;48.838;2.322;2023-11-19T10:36:53;4.13;;;2.10;;
819;SDS011;392;48.838;2.322;2023-11-19T10:39:20;5.70;;;2.43;;
819;SDS011;392;48.838;2.322;2023-11-19T10:41:51;4.30;;;2.17;;
819;SDS011;392;48.838;2.322;2023-11-19T10:44:31;5.90;;;2.40;;
819;SDS011;392;48.838;2.322;2023-11-19T10:47:01;9.13;;;2.50;;
819;SDS011;392;48.838;2.322;2023-11-19T10:49:32;3.60;;;2.20;;
819;SDS011;392;48.838;2.322;2023-11-19T10:52:00;7.10;;;2.57;;
819;SDS011;392;48.838;2.322;2023-11-19T10:54:29;7.10;;;2.90;;
819;SDS011;392;48.838;2.322;2023-11-19T10:57:01;3.90;;;2.00;;
819;SDS011;392;48.838;2.322;2023-11-19T10:59:29;8.20;;;2.70;;
819;SDS011;392;48.838;2.322;2023-11-19T11:01:57;3.97;;;1.90;;
819;SDS011;392;48.838;2.322;2023-11-19T11:04:31;8.63;;;2.83;;
819;SDS011;392;48.838;2.322;2023-11-19T11:07:04;5.17;;;2.47;;
819;SDS011;392;48.838;2.322;2023-11-19T11:09:32;8.43;;;2.90;;
819;SDS011;392;48.838;2.322;2023-11-19T11:12:01;18.63;;;2.77;;
819;SDS011;392;48.838;2.322;2023-11-19T11:14:30;5.60;;;1.90;;
819;SDS011;392;48.838;2.322;2023-11-19T11:17:00;5.67;;;3.03;;
819;SDS011;392;48.838;2.322;2023-11-19T11:19:29;5.53;;;2.50;;
819;SDS011;392;48.838;2.322;2023-11-19T11:21:57;8.83;;;2.97;;
819;SDS011;392;48.838;2.322;2023-11-19T11:24:29;10.50;;;2.03;;
819;SDS011;392;48.838;2.322;2023-11-19T11:27:22;4.93;;;2.33;;
819;SDS011;392;48.838;2.322;2023-11-19T11:30:14;10.50;;;2.87;;
819;SDS011;392;48.838;2.322;2023-11-19T11:32:55;5.43;;;2.80;;
819;SDS011;392;48.838;2.322;2023-11-19T11:35:38;4.93;;;3.07;;
819;SDS011;392;48.838;2.322;2023-11-19T11:38:17;7.57;;;2.90;;
819;SDS011;392;48.838;2.322;2023-11-19T11:43:50;5.60;;;1.80;;
819;SDS011;392;48.838;2.322;2023-11-19T11:49:26;4.33;;;2.30;;
819;SDS011;392;48.838;2.322;2023-11-19T11:51:58;8.13;;;2.60;;
819;SDS011;392;48.838;2.322;2023-11-19T11:54:26;7.33;;;2.50;;
819;SDS011;392;48.838;2.322;2023-11-19T11:59:48;6.30;;;2.60;;
819;SDS011;392;48.838;2.322;2023-11-19T12:02:17;5.10;;;2.77;;
819;SDS011;392;48.838;2.322;2023-11-19T12:04:47;8.60;;;2.77;;
819;SDS011;392;48.838;2.322;2023-11-19T12:07:17;5.60;;;2.57;;
819;SDS011;392;48.838;2.322;2023-11-19T12:09:47;5.07;;;2.00;;
819;SDS011;392;48.838;2.322;2023-11-19T12:12:18;5.60;;;2.33;;
819;SDS011;392;48.838;2.322;2023-11-19T12:15:02;4.97;;;2.10;;
819;SDS011;392;48.838;2.322;2023-11-19T12:17:42;5.23;;;2.60;;
819;SDS011;392;48.838;2.322;2023-11-19T12:20:15;3.70;;;2.33;;
819;SDS011;392;48.838;2.322;2023-11-19T12:22:45;5.07;;;2.37;;
819;SDS011;392;48.838;2.322;2023-11-19T12:25:14;3.40;;;2.13;;
819;SDS011;392;48.838;2.322;2023-11-19T12:27:43;7.00;;;3.10;;
819;SDS011;392;48.838;2.322;2023-11-19T12:30:14;7.83;;;2.87;;
819;SDS011;392;48.838;2.322;2023-11-19T12:32:45;6.93;;;2.77;;
819;SDS011;392;48.838;2.322;2023-11-19T12:35:13;3.93;;;3.10;;
819;SDS011;392;48.838;2.322;2023-11-19T12:37:40;5.57;;;2.60;;
819;SDS011;392;48.838;2.322;2023-11-19T12:40:12;8.37;;;2.90;;
819;SDS011;392;48.838;2.322;2023-11-19T12:42:41;8.90;;;2.50;;
819;SDS011;392;48.838;2.322;2023-11-19T12:45:08;5.30;;;2.73;;
819;SDS011;392;48.838;2.322;2023-11-19T12:47:39;6.40;;;2.40;;
819;SDS011;392;48.838;2.322;2023-11-19T12:50:07;3.70;;;1.97;;
819;SDS011;392;48.838;2.322;2023-11-19T12:52:36;7.70;;;2.70;;
819;SDS011;392;48.838;2.322;2023-11-19T12:55:04;4.67;;;2.13;;
819;SDS011;392;48.838;2.322;2023-11-19T12:57:50;9.03;;;2.20;;
819;SDS011;392;48.838;2.322;2023-11-19T13:00:19;7.77;;;2.90;;
819;SDS011;392;48.838;2.322;2023-11-19T13:02:49;10.33;;;2.97;;
819;SDS011;392;48.838;2.322;2023-11-19T13:05:22;7.97;;;2.40;;
819;SDS011;392;48.838;2.322;2023-11-19T13:08:02;5.13;;;2.63;;
819;SDS011;392;48.838;2.322;2023-11-19T13:10:31;6.70;;;2.67;;
819;SDS011;392;48.838;2.322;2023-11-19T13:13:02;5.50;;;2.63;;
819;SDS011;392;48.838;2.322;2023-11-19T13:15:31;8.00;;;2.67;;
819;SDS011;392;48.838;2.322;2023-11-19T13:18:00;9.03;;;2.90;;
819;SDS011;392;48.838;2.322;2023-11-19T13:20:29;4.57;;;2.13;;
819;SDS011;392;48.838;2.322;2023-11-19T13:22:57;9.17;;;2.37;;
819;SDS011;392;48.838;2.322;2023-11-19T13:25:26;5.97;;;2.43;;
819;SDS011;392;48.838;2.322;2023-11-19T13:27:53;6.97;;;2.40;;
819;SDS011;392;48.838;2.322;2023-11-19T13:30:21;6.20;;;2.80;;
819;SDS011;392;48.838;2.322;2023-11-19T13:32:49;6.07;;;2.77;;
819;SDS011;392;48.838;2.322;2023-11-19T13:35:18;11.03;;;3.13;;
819;SDS011;392;48.838;2.322;2023-11-19T13:37:45;6.70;;;3.00;;
819;SDS011;392;48.838;2.322;2023-11-19T13:40:13;9.53;;;2.93;;
819;SDS011;392;48.838;2.322;2023-11-19T13:42:41;6.60;;;2.40;;
819;SDS011;392;48.838;2.322;2023-11-19T13:45:09;3.83;;;3.10;;
819;SDS011;392;48.838;2.322;2023-11-19T13:47:37;4.53;;;2.70;;
819;SDS011;392;48.838;2.322;2023-11-19T13:50:07;4.70;;;2.53;;
819;SDS011;392;48.838;2.322;2023-11-19T13:52:37;5.30;;;2.87;;
819;SDS011;392;48.838;2.322;2023-11-19T13:55:06;7.53;;;2.60;;
819;SDS011;392;48.838;2.322;2023-11-19T13:57:35;4.10;;;2.67;;
819;SDS011;392;48.838;2.322;2023-11-19T14:00:03;6.43;;;2.50;;
819;SDS011;392;48.838;2.322;2023-11-19T14:02:36;6.60;;;2.50;;
819;SDS011;392;48.838;2.322;2023-11-19T14:05:03;6.17;;;2.40;;
819;SDS011;392;48.838;2.322;2023-11-19T14:07:31;4.73;;;2.73;;
819;SDS011;392;48.838;2.322;2023-11-19T14:10:00;5.43;;;2.27;;
819;SDS011;392;48.838;2.322;2023-11-19T14:12:28;8.40;;;2.90;;
819;SDS011;392;48.838;2.322;2023-11-19T14:14:55;4.73;;;2.40;;
819;SDS011;392;48.838;2.322;2023-11-19T14:17:22;5.77;;;2.20;;
819;SDS011;392;48.838;2.322;2023-11-19T14:19:50;10.80;;;2.33;;
819;SDS011;392;48.838;2.322;2023-11-19T14:22:17;8.20;;;2.80;;
819;SDS011;392;48.838;2.322;2023-11-19T14:24:44;6.40;;;2.30;;
819;SDS011;392;48.838;2.322;2023-11-19T14:27:13;6.07;;;2.50;;
819;SDS011;392;48.838;2.322;2023-11-19T14:29:42;6.13;;;2.43;;
819;SDS011;392;48.838;2.322;2023-11-19T14:32:10;5.70;;;2.50;;
819;SDS011;392;48.838;2.322;2023-11-19T14:34:37;5.20;;;2.40;;
819;SDS011;392;48.838;2.322;2023-11-19T14:37:05;6.23;;;2.53;;
819;SDS011;392;48.838;2.322;2023-11-19T14:39:32;4.93;;;2.77;;
819;SDS011;392;48.838;2.322;2023-11-19T14:41:59;6.30;;;3.00;;
819;SDS011;392;48.838;2.322;2023-11-19T14:44:31;5.67;;;2.83;;
819;SDS011;392;48.838;2.322;2023-11-19T14:46:59;6.40;;;2.60;;
819;SDS011;392;48.838;2.322;2023-11-19T14:49:27;5.70;;;2.27;;
819;SDS011;392;48.838;2.322;2023-11-19T14:51:54;6.43;;;2.70;;
819;SDS011;392;48.838;2.322;2023-11-19T14:54:22;4.20;;;2.40;;
819;SDS011;392;48.838;2.322;2023-11-19T14:56:49;4.73;;;2.07;;
819;SDS011;392;48.838;2.322;2023-11-19T14:59:17;5.70;;;2.10;;
819;SDS011;392;48.838;2.322;2023-11-19T15:01:45;8.87;;;2.53;;
819;SDS011;392;48.838;2.322;2023-11-19T15:04:13;5.77;;;2.37;;
819;SDS011;392;48.838;2.322;2023-11-19T15:06:41;6.83;;;2.90;;
819;SDS011;392;48.838;2.322;2023-11-19T15:09:08;4.67;;;2.70;;
819;SDS011;392;48.838;2.322;2023-11-19T15:11:41;3.50;;;2.30;;
819;SDS011;392;48.838;2.322;2023-11-19T15:14:08;7.93;;;2.83;;
819;SDS011;392;48.838;2.322;2023-11-19T15:16:35;7.73;;;3.17;;
819;SDS011;392;48.838;2.322;2023-11-19T15:19:04;4.00;;;2.10;;
819;SDS011;392;48.838;2.322;2023-11-19T15:21:32;6.33;;;2.70;;
819;SDS011;392;48.838;2.322;2023-11-19T15:23:59;5.67;;;2.83;;
819;SDS011;392;48.838;2.322;2023-11-19T15:26:29;7.63;;;2.87;;
819;SDS011;392;48.838;2.322;2023-11-19T15:28:56;4.83;;;2.93;;
819;SDS011;392;48.838;2.322;2023-11-19T15:31:24;9.70;;;4.10;;
819;SDS011;392;48.838;2.322;2023-11-19T15:33:51;6.53;;;2.80;;
819;SDS011;392;48.838;2.322;2023-11-19T15:36:19;5.27;;;2.20;;
819;SDS011;392;48.838;2.322;2023-11-19T15:38:47;10.37;;;3.50;;
819;SDS011;392;48.838;2.322;2023-11-19T15:41:14;4.00;;;2.50;;
819;SDS011;392;48.838;2.322;2023-11-19T15:43:42;10.37;;;3.93;;
819;SDS011;392;48.838;2.322;2023-11-19T15:46:09;6.53;;;3.40;;
819;SDS011;392;48.838;2.322;2023-11-19T15:48:37;7.10;;;3.27;;
819;SDS011;392;48.838;2.322;2023-11-19T15:51:05;7.80;;;2.90;;
819;SDS011;392;48.838;2.322;2023-11-19T15:53:34;10.30;;;4.10;;
819;SDS011;392;48.838;2.322;2023-11-19T15:56:01;5.90;;;2.90;;
819;SDS011;392;48.838;2.322;2023-11-19T15:58:29;7.53;;;3.10;;
819;SDS011;392;48.838;2.322;2023-11-19T16:00:56;7.60;;;3.03;;
819;SDS011;392;48.838;2.322;2023-11-19T16:03:23;6.60;;;4.93;;